createdAt,value
2023-02-07T00:01:31.364Z,56.20
2023-02-07T00:04:03.872Z,56.20
2023-02-07T00:06:30.479Z,56.20
2023-02-07T00:08:56.942Z,56.10
2023-02-07T00:11:23.422Z,56.20
2023-02-07T00:13:51.821Z,56.20
2023-02-07T00:16:18.322Z,56.30
2023-02-07T00:18:44.815Z,56.20
2023-02-07T00:21:11.289Z,56.20
2023-02-07T00:23:37.776Z,56.00
2023-02-07T00:26:04.255Z,56.10
2023-02-07T00:28:30.806Z,56.00
2023-02-07T00:30:57.481Z,55.90
2023-02-07T00:33:24.003Z,55.90
2023-02-07T00:35:50.482Z,56.00
2023-02-07T00:38:16.964Z,56.00
2023-02-07T00:40:43.440Z,56.00
2023-02-07T00:43:12.869Z,56.00
2023-02-07T00:45:42.913Z,56.00
2023-02-07T00:48:09.404Z,55.90
2023-02-07T00:50:35.862Z,55.90
2023-02-07T00:53:02.324Z,55.90
2023-02-07T00:55:28.781Z,55.80
2023-02-07T00:57:55.259Z,55.80
2023-02-07T01:00:21.725Z,55.60
2023-02-07T01:02:48.223Z,55.60
2023-02-07T01:05:14.691Z,55.60
2023-02-07T01:07:41.190Z,55.40
2023-02-07T01:10:07.890Z,55.40
2023-02-07T01:12:34.360Z,55.40
2023-02-07T01:15:00.846Z,55.40
2023-02-07T01:17:27.301Z,55.30
2023-02-07T01:19:57.884Z,55.40
2023-02-07T01:22:27.947Z,55.30
2023-02-07T01:24:54.398Z,55.30
2023-02-07T01:27:20.883Z,55.30
2023-02-07T01:29:51.880Z,55.30
2023-02-07T01:32:18.351Z,55.00
2023-02-07T01:34:44.855Z,55.10
2023-02-07T01:37:11.336Z,55.10
2023-02-07T01:39:37.823Z,55.10
2023-02-07T01:42:04.291Z,55.00
2023-02-07T01:44:30.769Z,55.10
2023-02-07T01:46:57.242Z,55.10
2023-02-07T01:49:23.726Z,54.80
2023-02-07T01:51:50.195Z,55.00
2023-02-07T01:54:16.681Z,55.00
2023-02-07T01:56:43.171Z,54.90
2023-02-07T01:59:09.630Z,54.90
2023-02-07T02:01:36.187Z,54.90
2023-02-07T02:04:02.718Z,54.80
2023-02-07T02:06:29.204Z,54.80
2023-02-07T02:08:55.688Z,54.80
2023-02-07T02:11:22.148Z,54.70
2023-02-07T02:13:48.610Z,54.70
2023-02-07T02:16:15.134Z,54.60
2023-02-07T02:18:41.637Z,54.50
2023-02-07T02:21:08.092Z,54.50
2023-02-07T02:23:40.158Z,54.50
2023-02-07T02:26:06.650Z,54.50
2023-02-07T02:28:33.128Z,54.50
2023-02-07T02:30:59.975Z,54.20
2023-02-07T02:33:26.502Z,54.40
2023-02-07T02:35:52.988Z,54.40
2023-02-07T02:38:19.469Z,54.20
2023-02-07T02:40:45.950Z,54.30
2023-02-07T02:43:12.414Z,54.30
2023-02-07T02:45:39.176Z,54.20
2023-02-07T02:48:05.830Z,54.20
2023-02-07T02:50:32.308Z,54.10
2023-02-07T02:52:58.773Z,54.10
2023-02-07T02:55:25.255Z,54.10
2023-02-07T02:57:51.724Z,54.10
2023-02-07T03:00:21.982Z,54.10
2023-02-07T03:02:48.478Z,54.00
2023-02-07T03:05:15.140Z,54.00
2023-02-07T03:07:41.659Z,54.00
2023-02-07T03:10:08.142Z,53.80
2023-02-07T03:12:34.604Z,53.80
2023-02-07T03:15:03.989Z,53.90
2023-02-07T03:17:30.451Z,53.80
2023-02-07T03:19:56.925Z,53.80
2023-02-07T03:22:23.381Z,53.70
2023-02-07T03:24:49.846Z,53.60
2023-02-07T03:27:16.297Z,53.80
2023-02-07T03:29:42.766Z,53.70
2023-02-07T03:32:09.289Z,53.60
2023-02-07T03:34:35.760Z,53.70
2023-02-07T03:37:02.250Z,53.40
2023-02-07T03:39:28.716Z,53.60
2023-02-07T03:41:55.200Z,53.50
2023-02-07T03:44:21.679Z,53.50
2023-02-07T03:46:48.192Z,53.40
2023-02-07T03:49:14.654Z,53.30
2023-02-07T03:51:41.135Z,53.40
2023-02-07T03:54:07.599Z,53.20
2023-02-07T03:56:34.071Z,53.30
2023-02-07T03:59:00.559Z,53.30
2023-02-07T04:01:27.040Z,53.20
2023-02-07T04:03:53.500Z,53.10
2023-02-07T04:06:22.017Z,53.10
2023-02-07T04:08:48.490Z,53.00
2023-02-07T04:11:14.975Z,53.10
2023-02-07T04:13:46.197Z,53.00
2023-02-07T04:16:12.717Z,52.90
2023-02-07T04:18:39.194Z,52.90
2023-02-07T04:21:05.700Z,52.90
2023-02-07T04:23:32.160Z,52.90
2023-02-07T04:25:58.626Z,52.80
2023-02-07T04:28:25.076Z,52.90
2023-02-07T04:30:51.561Z,52.70
2023-02-07T04:33:18.032Z,52.80
2023-02-07T04:35:44.511Z,52.80
2023-02-07T04:38:10.963Z,52.70
2023-02-07T04:40:37.434Z,52.70
2023-02-07T04:43:03.910Z,52.60
2023-02-07T04:45:30.395Z,52.50
2023-02-07T04:47:56.849Z,52.50
2023-02-07T04:50:23.329Z,52.50
2023-02-07T04:52:49.802Z,52.40
2023-02-07T04:55:16.286Z,52.50
2023-02-07T04:57:42.762Z,52.40
2023-02-07T05:00:09.233Z,52.30
2023-02-07T05:02:35.718Z,52.20
2023-02-07T05:05:02.238Z,52.10
2023-02-07T05:07:28.738Z,52.20
2023-02-07T05:09:55.234Z,52.20
2023-02-07T05:12:21.702Z,52.10
2023-02-07T05:14:48.186Z,52.10
2023-02-07T05:17:14.684Z,52.10
2023-02-07T05:19:41.166Z,52.00
2023-02-07T05:22:07.640Z,52.00
2023-02-07T05:24:34.122Z,51.80
2023-02-07T05:27:00.589Z,51.90
2023-02-07T05:29:27.060Z,51.90
2023-02-07T05:31:58.103Z,51.80
2023-02-07T05:34:24.559Z,51.80
2023-02-07T05:36:51.052Z,51.80
2023-02-07T05:39:17.532Z,51.80
2023-02-07T05:41:44.013Z,51.70
2023-02-07T05:44:10.494Z,51.70
2023-02-07T05:46:36.975Z,51.60
2023-02-07T05:49:03.446Z,51.60
2023-02-07T05:51:34.099Z,51.60
2023-02-07T05:54:00.564Z,51.60
2023-02-07T05:56:27.080Z,51.50
2023-02-07T05:58:53.568Z,51.50
2023-02-07T06:01:20.063Z,51.30
2023-02-07T06:03:46.621Z,51.40
2023-02-07T06:06:13.116Z,51.40
2023-02-07T06:08:39.577Z,51.30
2023-02-07T06:11:06.126Z,51.30
2023-02-07T06:13:32.640Z,51.20
2023-02-07T06:15:59.178Z,51.10
2023-02-07T06:18:25.651Z,51.20
2023-02-07T06:20:52.136Z,51.20
2023-02-07T06:23:18.610Z,51.00
2023-02-07T06:25:45.096Z,51.00
2023-02-07T06:28:11.584Z,51.00
2023-02-07T06:30:38.086Z,51.00
2023-02-07T06:33:04.577Z,50.90
2023-02-07T06:35:31.085Z,51.00
2023-02-07T06:37:57.555Z,50.90
2023-02-07T06:40:24.065Z,50.90
2023-02-07T06:42:50.549Z,50.80
2023-02-07T06:45:17.034Z,50.90
2023-02-07T06:47:43.532Z,50.90
2023-02-07T06:50:09.997Z,50.80
2023-02-07T06:52:36.490Z,50.60
2023-02-07T06:55:03.027Z,50.80
2023-02-07T06:57:29.516Z,50.80
2023-02-07T06:59:56.005Z,50.60
2023-02-07T07:02:22.491Z,50.60
2023-02-07T07:04:48.978Z,50.70
2023-02-07T07:07:15.462Z,50.60
2023-02-07T07:09:41.967Z,50.30
2023-02-07T07:12:10.172Z,50.50
2023-02-07T07:14:36.651Z,50.60
2023-02-07T07:17:04.194Z,50.60
2023-02-07T07:19:30.699Z,50.60
2023-02-07T07:21:58.190Z,50.60
2023-02-07T07:24:24.685Z,50.50
2023-02-07T07:26:51.156Z,50.40
2023-02-07T07:29:17.630Z,50.30
2023-02-07T07:31:44.144Z,50.30
2023-02-07T07:34:10.681Z,50.40
2023-02-07T07:36:37.156Z,50.40
2023-02-07T07:39:03.637Z,50.30
2023-02-07T07:41:30.101Z,50.30
2023-02-07T07:43:56.566Z,50.20
2023-02-07T07:46:23.083Z,50.20
2023-02-07T07:48:49.573Z,50.20
2023-02-07T07:51:16.031Z,50.30
2023-02-07T07:53:42.495Z,50.20
2023-02-07T07:56:08.966Z,50.10
2023-02-07T07:58:35.428Z,50.20
2023-02-07T08:01:02.005Z,50.30
2023-02-07T08:03:28.541Z,50.20
2023-02-07T08:05:55.066Z,50.20
2023-02-07T08:08:21.557Z,50.20
2023-02-07T08:10:48.031Z,50.20
2023-02-07T08:13:16.222Z,50.30
2023-02-07T08:15:42.705Z,50.20
2023-02-07T08:18:09.187Z,50.10
2023-02-07T08:20:35.665Z,50.20
2023-02-07T08:23:02.146Z,50.20
2023-02-07T08:25:28.632Z,50.20
2023-02-07T08:27:55.137Z,50.10
2023-02-07T08:30:21.674Z,50.10
2023-02-07T08:32:48.189Z,50.10
2023-02-07T08:35:14.782Z,50.20
2023-02-07T08:37:41.251Z,50.20
2023-02-07T08:40:07.774Z,50.10
2023-02-07T08:42:34.248Z,50.20
2023-02-07T08:45:00.723Z,50.10
2023-02-07T08:47:27.214Z,50.10
2023-02-07T08:49:53.692Z,50.10
2023-02-07T08:52:20.180Z,50.20
2023-02-07T08:54:46.647Z,50.10
2023-02-07T08:57:13.137Z,50.10
2023-02-07T08:59:39.590Z,50.20
2023-02-07T09:02:06.114Z,50.20
2023-02-07T09:04:32.612Z,50.20
2023-02-07T09:06:59.116Z,50.30
2023-02-07T09:09:25.570Z,50.30
2023-02-07T09:11:52.074Z,50.50
2023-02-07T09:14:22.307Z,50.50
2023-02-07T09:16:48.832Z,50.50
2023-02-07T09:19:15.344Z,50.50
2023-02-07T09:21:41.842Z,50.50
2023-02-07T09:24:08.321Z,50.60
2023-02-07T09:26:40.291Z,50.40
2023-02-07T09:29:06.872Z,50.60
2023-02-07T09:31:33.459Z,50.60
2023-02-07T09:34:04.311Z,50.70
2023-02-07T09:36:30.817Z,50.80
2023-02-07T09:38:57.314Z,50.90
2023-02-07T09:41:23.788Z,50.90
2023-02-07T09:43:50.412Z,50.80
2023-02-07T09:46:17.114Z,50.90
2023-02-07T09:48:43.665Z,50.90
2023-02-07T09:51:10.146Z,50.90
2023-02-07T09:53:36.619Z,51.00
2023-02-07T09:56:03.102Z,50.80
2023-02-07T09:58:29.587Z,51.00
2023-02-07T10:00:56.089Z,51.10
2023-02-07T10:03:22.614Z,51.20
2023-02-07T10:05:49.084Z,51.10
2023-02-07T10:08:15.574Z,51.20
2023-02-07T10:10:42.071Z,51.10
2023-02-07T10:13:09.629Z,51.20
2023-02-07T10:15:36.187Z,51.20
2023-02-07T10:18:02.688Z,51.20
2023-02-07T10:20:29.158Z,51.10
2023-02-07T10:22:55.661Z,51.10
2023-02-07T10:25:22.141Z,51.20
2023-02-07T10:27:48.660Z,51.30
2023-02-07T10:30:15.195Z,51.20
2023-02-07T10:32:41.663Z,51.20
2023-02-07T10:35:08.183Z,51.40
2023-02-07T10:37:34.637Z,51.20
2023-02-07T10:40:01.068Z,51.30
2023-02-07T10:42:27.551Z,51.30
2023-02-07T10:44:54.026Z,51.40
2023-02-07T10:47:20.485Z,51.40
2023-02-07T10:49:46.962Z,51.30
2023-02-07T10:52:13.455Z,51.40
2023-02-07T10:54:39.949Z,51.50
2023-02-07T10:57:06.437Z,51.40
2023-02-07T10:59:32.931Z,51.50
2023-02-07T11:01:59.516Z,51.50
2023-02-07T11:04:26.068Z,51.50
2023-02-07T11:06:52.553Z,51.60
2023-02-07T11:09:19.024Z,51.60
2023-02-07T11:11:45.505Z,51.60
2023-02-07T11:14:11.999Z,51.60
2023-02-07T11:16:38.462Z,51.70
2023-02-07T11:19:04.968Z,51.70
2023-02-07T11:21:31.467Z,51.70
2023-02-07T11:23:57.950Z,51.80
2023-02-07T11:26:24.419Z,51.80
2023-02-07T11:28:50.911Z,51.70
2023-02-07T11:31:17.444Z,51.70
2023-02-07T11:33:43.981Z,51.70
2023-02-07T11:36:10.451Z,51.80
2023-02-07T11:38:36.921Z,51.80
2023-02-07T11:41:03.405Z,51.70
2023-02-07T11:43:29.859Z,51.80
2023-02-07T11:45:58.167Z,51.80
2023-02-07T11:48:25.875Z,51.70
2023-02-07T11:50:52.351Z,51.70
2023-02-07T11:53:18.832Z,51.80
2023-02-07T11:55:45.316Z,51.80
2023-02-07T11:58:11.797Z,51.80
2023-02-07T12:00:38.286Z,51.80
2023-02-07T12:03:04.776Z,51.80
2023-02-07T12:05:31.259Z,51.90
2023-02-07T12:07:57.731Z,51.90
2023-02-07T12:10:24.223Z,52.00
2023-02-07T12:12:50.725Z,52.10
2023-02-07T12:15:22.418Z,52.10
2023-02-07T12:17:48.881Z,52.10
2023-02-07T12:20:15.383Z,52.10
2023-02-07T12:22:44.321Z,52.00
2023-02-07T12:25:10.872Z,52.10
2023-02-07T12:27:37.352Z,52.10
2023-02-07T12:30:03.851Z,52.10
2023-02-07T12:32:30.457Z,52.10
2023-02-07T12:34:57.026Z,52.10
2023-02-07T12:37:23.487Z,52.20
2023-02-07T12:39:49.966Z,52.10
2023-02-07T12:42:16.435Z,52.10
2023-02-07T12:44:42.923Z,52.10
2023-02-07T12:47:09.434Z,52.10
2023-02-07T12:49:35.930Z,52.10
2023-02-07T12:52:02.410Z,52.20
2023-02-07T12:54:28.870Z,52.20
2023-02-07T12:56:55.363Z,52.20
2023-02-07T12:59:21.812Z,52.20
2023-02-07T13:01:48.271Z,52.20
2023-02-07T13:04:14.726Z,52.30
2023-02-07T13:06:41.202Z,52.30
2023-02-07T13:09:07.686Z,52.30
2023-02-07T13:11:34.191Z,52.40
2023-02-07T13:14:00.662Z,52.40
2023-02-07T13:16:27.131Z,52.40
2023-02-07T13:18:53.595Z,52.40
2023-02-07T13:21:20.080Z,52.50
2023-02-07T13:23:46.549Z,52.50
2023-02-07T13:26:13.010Z,52.60
2023-02-07T13:28:39.471Z,52.50
2023-02-07T13:31:05.981Z,52.60
2023-02-07T13:33:32.549Z,52.70
2023-02-07T13:35:59.030Z,52.70
2023-02-07T13:38:25.523Z,52.70
2023-02-07T13:40:52.021Z,52.70
2023-02-07T13:43:18.485Z,52.70
2023-02-07T13:45:45.040Z,52.80
2023-02-07T13:48:11.545Z,52.80
2023-02-07T13:50:38.283Z,52.70
2023-02-07T13:53:04.974Z,52.80
2023-02-07T13:55:31.462Z,52.80
2023-02-07T13:57:57.935Z,52.60
2023-02-07T14:00:24.414Z,52.80
2023-02-07T14:02:50.880Z,53.00
2023-02-07T14:05:17.379Z,53.00
2023-02-07T14:07:43.880Z,52.90
2023-02-07T14:10:10.364Z,52.90
2023-02-07T14:12:36.844Z,52.90
2023-02-07T14:15:03.529Z,52.90
2023-02-07T14:17:30.054Z,53.00
2023-02-07T14:19:56.529Z,53.00
2023-02-07T14:22:23.023Z,53.10
2023-02-07T14:24:49.474Z,53.00
2023-02-07T14:27:15.953Z,53.00
2023-02-07T14:29:42.429Z,53.00
2023-02-07T14:32:08.921Z,53.00
2023-02-07T14:34:35.388Z,53.00
2023-02-07T14:37:01.872Z,53.00
2023-02-07T14:39:28.347Z,52.90
2023-02-07T14:41:54.845Z,52.90
2023-02-07T14:44:21.296Z,53.00
2023-02-07T14:46:47.838Z,52.80
2023-02-07T14:49:14.359Z,53.00
2023-02-07T14:51:40.835Z,53.00
2023-02-07T14:54:07.306Z,53.00
2023-02-07T14:56:33.779Z,53.00
2023-02-07T14:59:00.297Z,53.00
2023-02-07T15:01:27.925Z,53.10
2023-02-07T15:03:54.413Z,53.00
2023-02-07T15:06:31.931Z,53.00
2023-02-07T15:08:59.008Z,53.00
2023-02-07T15:11:25.503Z,53.00
2023-02-07T15:13:51.955Z,53.10
2023-02-07T15:16:18.460Z,53.10
2023-02-07T15:18:44.975Z,52.90
2023-02-07T15:21:11.449Z,53.10
2023-02-07T15:23:37.986Z,53.10
2023-02-07T15:26:04.453Z,53.10
2023-02-07T15:28:30.970Z,53.10
2023-02-07T15:30:58.689Z,53.10
2023-02-07T15:33:25.211Z,53.10
2023-02-07T15:35:51.666Z,53.10
2023-02-07T15:38:18.137Z,53.10
2023-02-07T15:40:44.624Z,53.20
2023-02-07T15:43:11.105Z,53.20
2023-02-07T15:45:38.042Z,53.20
2023-02-07T15:48:04.772Z,53.10
2023-02-07T15:50:31.251Z,53.20
2023-02-07T15:52:57.735Z,53.20
2023-02-07T15:55:24.230Z,53.10
2023-02-07T15:57:50.686Z,53.20
2023-02-07T16:00:17.158Z,53.20
2023-02-07T16:02:43.672Z,53.20
2023-02-07T16:05:10.146Z,53.10
2023-02-07T16:07:36.632Z,53.20
2023-02-07T16:10:03.109Z,53.20
2023-02-07T16:12:29.578Z,53.20
2023-02-07T16:14:56.041Z,53.20
2023-02-07T16:17:22.518Z,53.20
2023-02-07T16:19:48.990Z,53.30
2023-02-07T16:22:15.454Z,53.20
2023-02-07T16:24:41.931Z,53.20
2023-02-07T16:27:08.427Z,53.30
2023-02-07T16:29:34.906Z,53.00
2023-02-07T16:32:01.456Z,53.30
2023-02-07T16:34:27.957Z,53.10
2023-02-07T16:36:54.437Z,53.20
2023-02-07T16:39:20.908Z,53.30
2023-02-07T16:41:47.392Z,53.20
2023-02-07T16:44:13.848Z,53.20
2023-02-07T16:46:40.312Z,53.20
2023-02-07T16:49:06.781Z,53.20
2023-02-07T16:51:33.288Z,53.10
2023-02-07T16:53:59.769Z,53.10
2023-02-07T16:56:26.265Z,53.20
2023-02-07T16:58:52.752Z,53.20
2023-02-07T17:01:19.318Z,53.20
2023-02-07T17:03:45.811Z,53.10
2023-02-07T17:06:12.299Z,53.10
2023-02-07T17:08:38.764Z,53.00
2023-02-07T17:11:05.234Z,53.10
2023-02-07T17:13:31.711Z,53.10
2023-02-07T17:15:58.204Z,53.10
2023-02-07T17:18:24.708Z,53.10
2023-02-07T17:20:51.181Z,53.00
2023-02-07T17:23:17.670Z,53.00
2023-02-07T17:25:44.134Z,53.00
2023-02-07T17:28:10.678Z,53.00
2023-02-07T17:30:37.413Z,52.90
2023-02-07T17:33:03.975Z,53.00
2023-02-07T17:35:30.431Z,52.90
2023-02-07T17:37:56.904Z,52.90
2023-02-07T17:40:23.387Z,52.80
2023-02-07T17:42:49.891Z,52.80
2023-02-07T17:45:16.369Z,52.80
2023-02-07T17:47:42.853Z,52.70
2023-02-07T17:50:09.305Z,52.70
2023-02-07T17:52:35.776Z,52.70
2023-02-07T17:55:02.268Z,52.70
2023-02-07T17:57:34.711Z,52.70
2023-02-07T18:00:01.192Z,52.50
2023-02-07T18:02:28.710Z,52.60
2023-02-07T18:04:55.218Z,52.50
2023-02-07T18:07:21.688Z,52.60
2023-02-07T18:09:48.151Z,52.50
2023-02-07T18:12:14.638Z,52.70
2023-02-07T18:14:41.120Z,52.40
2023-02-07T18:17:07.586Z,52.50
2023-02-07T18:19:34.056Z,52.40
2023-02-07T18:22:00.529Z,52.40
2023-02-07T18:24:27.005Z,52.40
2023-02-07T18:26:53.635Z,52.40
2023-02-07T18:29:20.126Z,52.40
2023-02-07T18:31:46.627Z,52.40
2023-02-07T18:34:13.118Z,52.00
2023-02-07T18:36:39.601Z,52.20
2023-02-07T18:39:06.067Z,52.10
2023-02-07T18:41:32.542Z,52.10
2023-02-07T18:43:59.013Z,52.10
2023-02-07T18:46:25.511Z,52.10
2023-02-07T18:48:52.277Z,52.10
2023-02-07T18:51:18.744Z,52.10
2023-02-07T18:53:45.206Z,52.00
2023-02-07T18:56:11.660Z,51.70
2023-02-07T18:58:40.740Z,51.70
2023-02-07T19:01:09.724Z,51.60
2023-02-07T19:03:36.452Z,51.70
2023-02-07T19:06:02.930Z,51.60
2023-02-07T19:08:29.403Z,51.50
2023-02-07T19:10:55.889Z,51.50
2023-02-07T19:13:22.384Z,51.50
2023-02-07T19:15:48.894Z,51.50
2023-02-07T19:18:15.433Z,51.50
2023-02-07T19:20:42.180Z,51.30
2023-02-07T19:23:08.848Z,51.40
2023-02-07T19:25:35.382Z,51.40
2023-02-07T19:28:01.906Z,51.30
2023-02-07T19:30:28.452Z,51.20
2023-02-07T19:32:54.938Z,51.30
2023-02-07T19:35:21.409Z,51.10
2023-02-07T19:37:47.869Z,51.10
2023-02-07T19:40:14.361Z,51.10
2023-02-07T19:42:40.855Z,51.00
2023-02-07T19:45:07.343Z,51.00
2023-02-07T19:47:33.854Z,51.00
2023-02-07T19:50:00.320Z,50.90
2023-02-07T19:52:26.802Z,51.00
2023-02-07T19:54:55.741Z,51.00
2023-02-07T19:57:22.334Z,51.00
2023-02-07T19:59:48.809Z,50.90
2023-02-07T20:02:15.286Z,50.80
2023-02-07T20:04:41.760Z,50.60
2023-02-07T20:07:08.235Z,50.80
2023-02-07T20:09:34.705Z,50.80
2023-02-07T20:12:01.185Z,50.80
2023-02-07T20:14:27.660Z,50.60
2023-02-07T20:16:54.124Z,50.60
2023-02-07T20:19:20.591Z,50.80
2023-02-07T20:21:47.058Z,50.60
2023-02-07T20:24:13.532Z,50.60
2023-02-07T20:26:40.013Z,50.60
2023-02-07T20:29:06.472Z,50.20
2023-02-07T20:31:32.985Z,50.40
2023-02-07T20:33:59.482Z,50.40
2023-02-07T20:36:25.985Z,50.40
2023-02-07T20:38:52.487Z,50.30
2023-02-07T20:41:18.953Z,50.30
2023-02-07T20:43:45.426Z,50.20
2023-02-07T20:46:11.895Z,50.10
2023-02-07T20:48:38.371Z,50.30
2023-02-07T20:51:04.826Z,50.10
2023-02-07T20:53:31.282Z,50.10
2023-02-07T20:55:58.859Z,49.90
2023-02-07T20:58:25.323Z,50.10
2023-02-07T21:00:51.808Z,49.70
2023-02-07T21:03:18.295Z,49.90
2023-02-07T21:05:44.754Z,49.90
2023-02-07T21:08:11.224Z,49.90
2023-02-07T21:10:38.169Z,49.80
2023-02-07T21:13:04.881Z,49.80
2023-02-07T21:15:31.373Z,49.80
2023-02-07T21:17:57.850Z,49.80
2023-02-07T21:20:24.326Z,49.80
2023-02-07T21:22:50.784Z,49.70
2023-02-07T21:25:17.250Z,49.70
2023-02-07T21:27:43.724Z,49.50
2023-02-07T21:30:10.863Z,49.60
2023-02-07T21:32:37.327Z,49.40
2023-02-07T21:35:03.880Z,49.40
2023-02-07T21:37:30.375Z,49.60
2023-02-07T21:39:56.844Z,49.50
2023-02-07T21:42:23.319Z,49.40
2023-02-07T21:44:49.807Z,49.50
2023-02-07T21:47:16.283Z,49.30
2023-02-07T21:49:42.793Z,49.30
2023-02-07T21:52:09.249Z,49.40
2023-02-07T21:54:35.721Z,49.40
2023-02-07T21:57:04.913Z,49.40
2023-02-07T21:59:31.394Z,49.30
2023-02-07T22:01:57.887Z,49.30
2023-02-07T22:04:24.388Z,49.20
2023-02-07T22:06:50.865Z,49.20
2023-02-07T22:09:17.328Z,49.00
2023-02-07T22:11:43.808Z,49.20
2023-02-07T22:14:10.278Z,49.20
2023-02-07T22:16:36.870Z,49.20
2023-02-07T22:19:03.458Z,49.20
2023-02-07T22:21:29.937Z,48.80
2023-02-07T22:23:56.411Z,48.90
2023-02-07T22:26:22.895Z,49.10
2023-02-07T22:28:49.366Z,49.00
2023-02-07T22:31:16.005Z,48.90
2023-02-07T22:33:42.523Z,48.90
2023-02-07T22:36:09.008Z,48.90
2023-02-07T22:38:35.487Z,48.90
2023-02-07T22:41:01.953Z,48.90
2023-02-07T22:43:28.435Z,48.90
2023-02-07T22:45:54.934Z,48.90
2023-02-07T22:48:21.427Z,48.90
2023-02-07T22:50:47.892Z,48.80
2023-02-07T22:53:14.365Z,48.80
2023-02-07T22:55:40.829Z,48.80
2023-02-07T22:58:10.999Z,48.70
2023-02-07T23:00:37.590Z,48.70
2023-02-07T23:03:04.214Z,48.70
2023-02-07T23:05:30.700Z,48.60
2023-02-07T23:07:57.165Z,48.70
2023-02-07T23:10:23.632Z,48.60
2023-02-07T23:12:52.915Z,48.50
2023-02-07T23:15:19.405Z,48.50
2023-02-07T23:17:45.875Z,48.50
2023-02-07T23:20:12.363Z,48.40
2023-02-07T23:22:38.835Z,48.40
2023-02-07T23:25:05.346Z,48.40
2023-02-07T23:27:31.895Z,48.50
2023-02-07T23:29:58.353Z,48.30
2023-02-07T23:32:24.836Z,48.40
2023-02-07T23:34:51.308Z,48.40
2023-02-07T23:37:17.762Z,48.50
2023-02-07T23:39:44.219Z,48.40
2023-02-07T23:42:10.688Z,48.40
2023-02-07T23:44:41.179Z,48.40
2023-02-07T23:47:07.664Z,48.40
2023-02-07T23:49:34.135Z,48.30
2023-02-07T23:52:00.620Z,48.40
2023-02-07T23:54:27.099Z,48.40
2023-02-07T23:56:59.024Z,48.40
2023-02-07T23:59:25.502Z,48.30
